sensor_id;sensor_type;location;lat;lon;timestamp;P1;durP1;ratioP1;P2;durP2;ratioP2
27539;SDS011;15906;52.046;4.724;2023-04-25T00:01:46;19.33;;;3.80;;
27539;SDS011;15906;52.046;4.724;2023-04-25T00:04:12;27.65;;;4.93;;
27539;SDS011;15906;52.046;4.724;2023-04-25T00:06:38;14.63;;;4.07;;
27539;SDS011;15906;52.046;4.724;2023-04-25T00:09:04;15.18;;;2.88;;
27539;SDS011;15906;52.046;4.724;2023-04-25T00:11:34;13.57;;;4.25;;
27539;SDS011;15906;52.046;4.724;2023-04-25T00:13:59;11.55;;;3.85;;
27539;SDS011;15906;52.046;4.724;2023-04-25T00:16:27;15.00;;;4.95;;
27539;SDS011;15906;52.046;4.724;2023-04-25T00:18:53;17.55;;;4.63;;
27539;SDS011;15906;52.046;4.724;2023-04-25T00:21:19;14.65;;;4.22;;
27539;SDS011;15906;52.046;4.724;2023-04-25T00:23:45;17.70;;;4.28;;
27539;SDS011;15906;52.046;4.724;2023-04-25T00:26:12;14.00;;;4.50;;
27539;SDS011;15906;52.046;4.724;2023-04-25T00:28:38;14.43;;;3.92;;
27539;SDS011;15906;52.046;4.724;2023-04-25T00:31:05;13.50;;;4.38;;
27539;SDS011;15906;52.046;4.724;2023-04-25T00:33:30;15.32;;;3.53;;
27539;SDS011;15906;52.046;4.724;2023-04-25T00:35:56;12.93;;;3.83;;
27539;SDS011;15906;52.046;4.724;2023-04-25T00:38:21;11.30;;;3.60;;
27539;SDS011;15906;52.046;4.724;2023-04-25T00:40:47;17.63;;;3.75;;
27539;SDS011;15906;52.046;4.724;2023-04-25T00:43:13;13.43;;;3.17;;
27539;SDS011;15906;52.046;4.724;2023-04-25T00:45:38;13.27;;;3.90;;
27539;SDS011;15906;52.046;4.724;2023-04-25T00:48:05;16.10;;;3.72;;
27539;SDS011;15906;52.046;4.724;2023-04-25T00:50:33;10.38;;;2.78;;
27539;SDS011;15906;52.046;4.724;2023-04-25T00:52:59;18.52;;;3.70;;
27539;SDS011;15906;52.046;4.724;2023-04-25T00:55:25;15.38;;;3.35;;
27539;SDS011;15906;52.046;4.724;2023-04-25T00:57:50;15.25;;;3.92;;
27539;SDS011;15906;52.046;4.724;2023-04-25T01:00:17;14.13;;;3.78;;
27539;SDS011;15906;52.046;4.724;2023-04-25T01:02:43;14.35;;;3.70;;
27539;SDS011;15906;52.046;4.724;2023-04-25T01:05:10;15.93;;;3.97;;
27539;SDS011;15906;52.046;4.724;2023-04-25T01:07:37;13.13;;;4.15;;
27539;SDS011;15906;52.046;4.724;2023-04-25T01:10:03;16.63;;;3.85;;
27539;SDS011;15906;52.046;4.724;2023-04-25T01:12:29;13.88;;;3.72;;
27539;SDS011;15906;52.046;4.724;2023-04-25T01:14:55;18.92;;;4.25;;
27539;SDS011;15906;52.046;4.724;2023-04-25T01:17:21;9.55;;;3.90;;
27539;SDS011;15906;52.046;4.724;2023-04-25T01:20:02;15.35;;;3.58;;
27539;SDS011;15906;52.046;4.724;2023-04-25T01:22:29;12.68;;;4.05;;
27539;SDS011;15906;52.046;4.724;2023-04-25T01:24:54;17.73;;;3.75;;
27539;SDS011;15906;52.046;4.724;2023-04-25T01:27:20;8.50;;;3.40;;
27539;SDS011;15906;52.046;4.724;2023-04-25T01:29:47;13.27;;;3.10;;
27539;SDS011;15906;52.046;4.724;2023-04-25T01:32:13;6.95;;;3.25;;
27539;SDS011;15906;52.046;4.724;2023-04-25T01:34:40;11.80;;;3.40;;
27539;SDS011;15906;52.046;4.724;2023-04-25T01:37:05;18.25;;;3.63;;
27539;SDS011;15906;52.046;4.724;2023-04-25T01:39:31;14.02;;;3.17;;
27539;SDS011;15906;52.046;4.724;2023-04-25T01:41:57;15.45;;;3.92;;
27539;SDS011;15906;52.046;4.724;2023-04-25T01:44:24;10.60;;;3.28;;
27539;SDS011;15906;52.046;4.724;2023-04-25T01:46:50;13.18;;;3.83;;
27539;SDS011;15906;52.046;4.724;2023-04-25T01:49:16;16.60;;;3.70;;
27539;SDS011;15906;52.046;4.724;2023-04-25T01:51:41;16.27;;;3.65;;
27539;SDS011;15906;52.046;4.724;2023-04-25T01:54:08;10.90;;;3.25;;
27539;SDS011;15906;52.046;4.724;2023-04-25T01:56:36;13.52;;;3.38;;
27539;SDS011;15906;52.046;4.724;2023-04-25T01:59:03;9.85;;;3.95;;
27539;SDS011;15906;52.046;4.724;2023-04-25T02:01:29;7.25;;;2.72;;
27539;SDS011;15906;52.046;4.724;2023-04-25T02:03:55;11.75;;;3.03;;
27539;SDS011;15906;52.046;4.724;2023-04-25T02:06:21;10.75;;;3.05;;
27539;SDS011;15906;52.046;4.724;2023-04-25T02:08:46;12.27;;;3.60;;
27539;SDS011;15906;52.046;4.724;2023-04-25T02:11:12;9.02;;;3.00;;
27539;SDS011;15906;52.046;4.724;2023-04-25T02:13:37;11.90;;;3.10;;
27539;SDS011;15906;52.046;4.724;2023-04-25T02:16:03;7.55;;;2.63;;
27539;SDS011;15906;52.046;4.724;2023-04-25T02:18:29;10.23;;;3.70;;
27539;SDS011;15906;52.046;4.724;2023-04-25T02:20:56;15.90;;;3.22;;
27539;SDS011;15906;52.046;4.724;2023-04-25T02:23:22;13.20;;;2.67;;
27539;SDS011;15906;52.046;4.724;2023-04-25T02:25:48;12.07;;;3.10;;
27539;SDS011;15906;52.046;4.724;2023-04-25T02:28:13;11.10;;;3.75;;
27539;SDS011;15906;52.046;4.724;2023-04-25T02:30:39;12.82;;;3.17;;
27539;SDS011;15906;52.046;4.724;2023-04-25T02:33:05;14.05;;;4.25;;
27539;SDS011;15906;52.046;4.724;2023-04-25T02:35:30;17.75;;;4.07;;
27539;SDS011;15906;52.046;4.724;2023-04-25T02:37:56;11.45;;;3.67;;
27539;SDS011;15906;52.046;4.724;2023-04-25T02:40:22;10.40;;;3.50;;
27539;SDS011;15906;52.046;4.724;2023-04-25T02:42:47;13.65;;;3.22;;
27539;SDS011;15906;52.046;4.724;2023-04-25T02:45:13;11.48;;;3.45;;
27539;SDS011;15906;52.046;4.724;2023-04-25T02:47:38;12.35;;;3.17;;
27539;SDS011;15906;52.046;4.724;2023-04-25T02:50:04;8.63;;;3.10;;
27539;SDS011;15906;52.046;4.724;2023-04-25T02:52:30;17.05;;;3.92;;
27539;SDS011;15906;52.046;4.724;2023-04-25T02:54:56;9.10;;;3.58;;
27539;SDS011;15906;52.046;4.724;2023-04-25T02:57:21;8.82;;;3.20;;
27539;SDS011;15906;52.046;4.724;2023-04-25T02:59:47;12.98;;;3.20;;
27539;SDS011;15906;52.046;4.724;2023-04-25T03:02:13;20.15;;;3.53;;
27539;SDS011;15906;52.046;4.724;2023-04-25T03:04:38;15.75;;;3.42;;
27539;SDS011;15906;52.046;4.724;2023-04-25T03:07:04;9.57;;;3.17;;
27539;SDS011;15906;52.046;4.724;2023-04-25T03:09:30;15.32;;;3.28;;
27539;SDS011;15906;52.046;4.724;2023-04-25T03:11:56;12.48;;;3.22;;
27539;SDS011;15906;52.046;4.724;2023-04-25T03:14:21;9.50;;;2.85;;
27539;SDS011;15906;52.046;4.724;2023-04-25T03:16:47;11.82;;;3.03;;
27539;SDS011;15906;52.046;4.724;2023-04-25T03:19:12;15.43;;;3.05;;
27539;SDS011;15906;52.046;4.724;2023-04-25T03:21:40;10.98;;;3.13;;
27539;SDS011;15906;52.046;4.724;2023-04-25T03:24:06;12.80;;;2.53;;
27539;SDS011;15906;52.046;4.724;2023-04-25T03:26:32;8.95;;;2.42;;
27539;SDS011;15906;52.046;4.724;2023-04-25T03:28:57;10.52;;;2.88;;
27539;SDS011;15906;52.046;4.724;2023-04-25T03:31:23;10.32;;;2.65;;
27539;SDS011;15906;52.046;4.724;2023-04-25T03:33:48;7.20;;;2.42;;
27539;SDS011;15906;52.046;4.724;2023-04-25T03:36:14;10.65;;;2.55;;
27539;SDS011;15906;52.046;4.724;2023-04-25T03:38:39;12.65;;;2.30;;
27539;SDS011;15906;52.046;4.724;2023-04-25T03:41:06;8.98;;;2.35;;
27539;SDS011;15906;52.046;4.724;2023-04-25T03:43:32;14.63;;;2.70;;
27539;SDS011;15906;52.046;4.724;2023-04-25T03:45:58;11.40;;;3.83;;
27539;SDS011;15906;52.046;4.724;2023-04-25T03:48:23;10.10;;;2.10;;
27539;SDS011;15906;52.046;4.724;2023-04-25T03:50:50;17.15;;;3.10;;
27539;SDS011;15906;52.046;4.724;2023-04-25T03:53:16;10.25;;;2.45;;
27539;SDS011;15906;52.046;4.724;2023-04-25T03:55:42;8.88;;;2.50;;
27539;SDS011;15906;52.046;4.724;2023-04-25T03:58:07;7.82;;;2.20;;
27539;SDS011;15906;52.046;4.724;2023-04-25T04:00:33;11.93;;;2.70;;
27539;SDS011;15906;52.046;4.724;2023-04-25T04:03:00;11.57;;;2.75;;
27539;SDS011;15906;52.046;4.724;2023-04-25T04:05:25;12.52;;;3.53;;
27539;SDS011;15906;52.046;4.724;2023-04-25T04:07:51;9.48;;;2.05;;
27539;SDS011;15906;52.046;4.724;2023-04-25T04:10:16;14.40;;;2.35;;
27539;SDS011;15906;52.046;4.724;2023-04-25T04:12:42;9.88;;;2.40;;
27539;SDS011;15906;52.046;4.724;2023-04-25T04:15:08;13.23;;;2.92;;
27539;SDS011;15906;52.046;4.724;2023-04-25T04:17:34;12.07;;;2.47;;
27539;SDS011;15906;52.046;4.724;2023-04-25T04:20:00;12.38;;;2.90;;
27539;SDS011;15906;52.046;4.724;2023-04-25T04:22:26;7.05;;;2.00;;
27539;SDS011;15906;52.046;4.724;2023-04-25T04:24:51;12.90;;;2.35;;
27539;SDS011;15906;52.046;4.724;2023-04-25T04:27:17;7.03;;;2.33;;
27539;SDS011;15906;52.046;4.724;2023-04-25T04:29:44;15.32;;;2.95;;
27539;SDS011;15906;52.046;4.724;2023-04-25T04:32:10;13.43;;;2.10;;
27539;SDS011;15906;52.046;4.724;2023-04-25T04:34:36;12.75;;;2.58;;
27539;SDS011;15906;52.046;4.724;2023-04-25T04:37:02;10.20;;;2.88;;
27539;SDS011;15906;52.046;4.724;2023-04-25T04:39:28;6.25;;;2.20;;
27539;SDS011;15906;52.046;4.724;2023-04-25T04:41:53;8.77;;;2.70;;
27539;SDS011;15906;52.046;4.724;2023-04-25T04:44:19;14.82;;;2.78;;
27539;SDS011;15906;52.046;4.724;2023-04-25T04:46:45;9.88;;;2.42;;
27539;SDS011;15906;52.046;4.724;2023-04-25T04:49:11;6.38;;;2.10;;
27539;SDS011;15906;52.046;4.724;2023-04-25T04:51:38;8.35;;;2.25;;
27539;SDS011;15906;52.046;4.724;2023-04-25T04:54:05;9.63;;;2.58;;
27539;SDS011;15906;52.046;4.724;2023-04-25T04:56:31;6.57;;;2.50;;
27539;SDS011;15906;52.046;4.724;2023-04-25T04:58:57;8.82;;;2.38;;
27539;SDS011;15906;52.046;4.724;2023-04-25T05:01:23;8.30;;;2.50;;
27539;SDS011;15906;52.046;4.724;2023-04-25T05:03:49;7.47;;;2.17;;
27539;SDS011;15906;52.046;4.724;2023-04-25T05:06:16;10.10;;;3.20;;
27539;SDS011;15906;52.046;4.724;2023-04-25T05:08:42;9.80;;;2.22;;
27539;SDS011;15906;52.046;4.724;2023-04-25T05:11:07;9.57;;;2.10;;
27539;SDS011;15906;52.046;4.724;2023-04-25T05:13:33;7.15;;;2.10;;
27539;SDS011;15906;52.046;4.724;2023-04-25T05:15:58;6.57;;;2.60;;
27539;SDS011;15906;52.046;4.724;2023-04-25T05:18:24;11.27;;;2.78;;
27539;SDS011;15906;52.046;4.724;2023-04-25T05:20:50;9.13;;;3.33;;
27539;SDS011;15906;52.046;4.724;2023-04-25T05:23:15;11.75;;;2.90;;
27539;SDS011;15906;52.046;4.724;2023-04-25T05:25:41;9.23;;;3.30;;
27539;SDS011;15906;52.046;4.724;2023-04-25T05:28:07;9.18;;;3.92;;
27539;SDS011;15906;52.046;4.724;2023-04-25T05:30:33;8.55;;;3.78;;
27539;SDS011;15906;52.046;4.724;2023-04-25T05:32:59;13.80;;;3.30;;
27539;SDS011;15906;52.046;4.724;2023-04-25T05:35:25;9.05;;;2.13;;
27539;SDS011;15906;52.046;4.724;2023-04-25T05:37:51;13.88;;;2.72;;
27539;SDS011;15906;52.046;4.724;2023-04-25T05:40:16;8.88;;;2.90;;
27539;SDS011;15906;52.046;4.724;2023-04-25T05:42:42;8.27;;;2.75;;
27539;SDS011;15906;52.046;4.724;2023-04-25T05:45:07;9.00;;;2.60;;
27539;SDS011;15906;52.046;4.724;2023-04-25T05:47:33;7.80;;;2.80;;
27539;SDS011;15906;52.046;4.724;2023-04-25T05:49:59;10.30;;;2.40;;
27539;SDS011;15906;52.046;4.724;2023-04-25T05:52:25;13.30;;;2.83;;
27539;SDS011;15906;52.046;4.724;2023-04-25T05:54:50;9.38;;;2.47;;
27539;SDS011;15906;52.046;4.724;2023-04-25T05:57:22;8.82;;;2.28;;
27539;SDS011;15906;52.046;4.724;2023-04-25T05:59:49;8.52;;;2.05;;
27539;SDS011;15906;52.046;4.724;2023-04-25T06:02:14;7.85;;;1.98;;
27539;SDS011;15906;52.046;4.724;2023-04-25T06:04:40;12.65;;;2.10;;
27539;SDS011;15906;52.046;4.724;2023-04-25T06:07:05;7.07;;;1.90;;
27539;SDS011;15906;52.046;4.724;2023-04-25T06:09:31;6.22;;;1.77;;
27539;SDS011;15906;52.046;4.724;2023-04-25T06:11:56;6.32;;;1.60;;
27539;SDS011;15906;52.046;4.724;2023-04-25T06:14:22;6.75;;;2.05;;
27539;SDS011;15906;52.046;4.724;2023-04-25T06:16:48;5.70;;;1.80;;
27539;SDS011;15906;52.046;4.724;2023-04-25T06:19:13;5.93;;;2.03;;
27539;SDS011;15906;52.046;4.724;2023-04-25T06:21:39;7.60;;;1.70;;
27539;SDS011;15906;52.046;4.724;2023-04-25T06:24:04;7.50;;;1.80;;
27539;SDS011;15906;52.046;4.724;2023-04-25T06:26:30;10.77;;;2.47;;
27539;SDS011;15906;52.046;4.724;2023-04-25T06:28:56;7.38;;;1.75;;
27539;SDS011;15906;52.046;4.724;2023-04-25T06:31:21;8.57;;;1.95;;
27539;SDS011;15906;52.046;4.724;2023-04-25T06:33:47;10.65;;;2.55;;
27539;SDS011;15906;52.046;4.724;2023-04-25T06:36:13;10.13;;;2.28;;
27539;SDS011;15906;52.046;4.724;2023-04-25T06:38:39;4.43;;;1.77;;
27539;SDS011;15906;52.046;4.724;2023-04-25T06:41:04;9.50;;;2.22;;
27539;SDS011;15906;52.046;4.724;2023-04-25T06:43:30;5.88;;;1.80;;
27539;SDS011;15906;52.046;4.724;2023-04-25T06:45:58;7.22;;;2.17;;
27539;SDS011;15906;52.046;4.724;2023-04-25T06:48:25;9.73;;;1.80;;
27539;SDS011;15906;52.046;4.724;2023-04-25T06:50:51;5.65;;;1.83;;
27539;SDS011;15906;52.046;4.724;2023-04-25T06:53:17;10.38;;;2.08;;
27539;SDS011;15906;52.046;4.724;2023-04-25T06:55:43;8.15;;;2.65;;
27539;SDS011;15906;52.046;4.724;2023-04-25T06:58:09;6.85;;;1.60;;
27539;SDS011;15906;52.046;4.724;2023-04-25T07:00:34;12.13;;;2.00;;
27539;SDS011;15906;52.046;4.724;2023-04-25T07:03:00;9.30;;;2.03;;
27539;SDS011;15906;52.046;4.724;2023-04-25T07:05:27;11.35;;;2.55;;
27539;SDS011;15906;52.046;4.724;2023-04-25T07:07:52;8.48;;;2.30;;
27539;SDS011;15906;52.046;4.724;2023-04-25T07:10:18;11.50;;;2.40;;
27539;SDS011;15906;52.046;4.724;2023-04-25T07:12:43;8.43;;;1.80;;
27539;SDS011;15906;52.046;4.724;2023-04-25T07:15:09;7.28;;;1.75;;
27539;SDS011;15906;52.046;4.724;2023-04-25T07:17:36;9.45;;;2.05;;
27539;SDS011;15906;52.046;4.724;2023-04-25T07:20:02;18.58;;;2.88;;
27539;SDS011;15906;52.046;4.724;2023-04-25T07:22:28;8.68;;;2.10;;
27539;SDS011;15906;52.046;4.724;2023-04-25T07:24:54;9.55;;;2.30;;
27539;SDS011;15906;52.046;4.724;2023-04-25T07:27:20;6.95;;;2.28;;
27539;SDS011;15906;52.046;4.724;2023-04-25T07:29:45;5.53;;;2.30;;
27539;SDS011;15906;52.046;4.724;2023-04-25T07:32:11;6.72;;;1.73;;
27539;SDS011;15906;52.046;4.724;2023-04-25T07:34:38;7.25;;;2.95;;
27539;SDS011;15906;52.046;4.724;2023-04-25T07:37:04;6.97;;;1.65;;
27539;SDS011;15906;52.046;4.724;2023-04-25T07:39:30;10.98;;;2.40;;
27539;SDS011;15906;52.046;4.724;2023-04-25T07:41:56;10.60;;;2.22;;
27539;SDS011;15906;52.046;4.724;2023-04-25T07:44:23;9.68;;;2.10;;
27539;SDS011;15906;52.046;4.724;2023-04-25T07:46:49;10.13;;;2.00;;
27539;SDS011;15906;52.046;4.724;2023-04-25T07:49:15;12.65;;;2.22;;
27539;SDS011;15906;52.046;4.724;2023-04-25T07:51:40;8.73;;;2.20;;
27539;SDS011;15906;52.046;4.724;2023-04-25T07:54:08;12.35;;;1.80;;
27539;SDS011;15906;52.046;4.724;2023-04-25T07:56:34;7.68;;;1.23;;
27539;SDS011;15906;52.046;4.724;2023-04-25T07:59:00;12.77;;;1.83;;
27539;SDS011;15906;52.046;4.724;2023-04-25T08:01:26;9.70;;;1.40;;
27539;SDS011;15906;52.046;4.724;2023-04-25T08:03:52;7.95;;;1.20;;
27539;SDS011;15906;52.046;4.724;2023-04-25T08:06:18;7.30;;;1.77;;
27539;SDS011;15906;52.046;4.724;2023-04-25T08:08:43;7.93;;;1.42;;
27539;SDS011;15906;52.046;4.724;2023-04-25T08:11:09;4.47;;;1.10;;
27539;SDS011;15906;52.046;4.724;2023-04-25T08:13:35;6.18;;;1.17;;
27539;SDS011;15906;52.046;4.724;2023-04-25T08:16:01;7.43;;;1.40;;
27539;SDS011;15906;52.046;4.724;2023-04-25T08:18:26;6.35;;;1.42;;
27539;SDS011;15906;52.046;4.724;2023-04-25T08:20:52;5.40;;;1.40;;
27539;SDS011;15906;52.046;4.724;2023-04-25T08:23:17;9.00;;;1.92;;
27539;SDS011;15906;52.046;4.724;2023-04-25T08:25:43;8.27;;;1.40;;
27539;SDS011;15906;52.046;4.724;2023-04-25T08:28:08;15.98;;;2.38;;
27539;SDS011;15906;52.046;4.724;2023-04-25T08:30:34;6.78;;;1.60;;
27539;SDS011;15906;52.046;4.724;2023-04-25T08:33:00;8.82;;;1.48;;
27539;SDS011;15906;52.046;4.724;2023-04-25T08:35:25;11.68;;;1.45;;
27539;SDS011;15906;52.046;4.724;2023-04-25T08:37:51;6.78;;;1.80;;
27539;SDS011;15906;52.046;4.724;2023-04-25T08:40:16;7.38;;;1.65;;
27539;SDS011;15906;52.046;4.724;2023-04-25T08:42:44;8.75;;;2.35;;
27539;SDS011;15906;52.046;4.724;2023-04-25T08:45:11;5.25;;;1.30;;
27539;SDS011;15906;52.046;4.724;2023-04-25T08:47:38;5.75;;;1.38;;
27539;SDS011;15906;52.046;4.724;2023-04-25T08:50:05;3.40;;;1.15;;
27539;SDS011;15906;52.046;4.724;2023-04-25T08:52:35;4.18;;;1.38;;
27539;SDS011;15906;52.046;4.724;2023-04-25T08:55:02;7.00;;;1.38;;
27539;SDS011;15906;52.046;4.724;2023-04-25T08:57:29;9.73;;;2.15;;
27539;SDS011;15906;52.046;4.724;2023-04-25T08:59:56;10.75;;;1.25;;
27539;SDS011;15906;52.046;4.724;2023-04-25T09:02:22;7.47;;;1.40;;
27539;SDS011;15906;52.046;4.724;2023-04-25T09:04:49;6.85;;;1.80;;
27539;SDS011;15906;52.046;4.724;2023-04-25T09:07:15;4.93;;;1.00;;
27539;SDS011;15906;52.046;4.724;2023-04-25T09:09:44;4.95;;;1.00;;
27539;SDS011;15906;52.046;4.724;2023-04-25T09:12:09;5.95;;;1.20;;
27539;SDS011;15906;52.046;4.724;2023-04-25T09:14:35;7.53;;;1.27;;
27539;SDS011;15906;52.046;4.724;2023-04-25T09:17:01;5.82;;;1.38;;
27539;SDS011;15906;52.046;4.724;2023-04-25T09:19:32;4.97;;;1.10;;
27539;SDS011;15906;52.046;4.724;2023-04-25T09:22:01;5.68;;;1.42;;
27539;SDS011;15906;52.046;4.724;2023-04-25T09:24:44;6.95;;;1.50;;
27539;SDS011;15906;52.046;4.724;2023-04-25T09:34:00;7.45;;;1.42;;
27539;SDS011;15906;52.046;4.724;2023-04-25T09:37:04;2.97;;;0.95;;
27539;SDS011;15906;52.046;4.724;2023-04-25T09:43:20;4.85;;;1.02;;
27539;SDS011;15906;52.046;4.724;2023-04-25T09:46:08;3.65;;;1.20;;
27539;SDS011;15906;52.046;4.724;2023-04-25T09:48:53;4.90;;;1.58;;
27539;SDS011;15906;52.046;4.724;2023-04-25T09:55:01;3.67;;;1.35;;
27539;SDS011;15906;52.046;4.724;2023-04-25T10:15:31;6.38;;;1.52;;
27539;SDS011;15906;52.046;4.724;2023-04-25T10:25:01;5.03;;;1.00;;
27539;SDS011;15906;52.046;4.724;2023-04-25T10:27:45;5.28;;;1.30;;
27539;SDS011;15906;52.046;4.724;2023-04-25T10:30:29;7.93;;;1.42;;
27539;SDS011;15906;52.046;4.724;2023-04-25T10:33:36;7.60;;;1.30;;
27539;SDS011;15906;52.046;4.724;2023-04-25T10:36:40;10.55;;;1.30;;
27539;SDS011;15906;52.046;4.724;2023-04-25T10:45:31;6.07;;;1.73;;
27539;SDS011;15906;52.046;4.724;2023-04-25T10:48:34;6.47;;;1.58;;
27539;SDS011;15906;52.046;4.724;2023-04-25T10:51:25;5.65;;;1.38;;
27539;SDS011;15906;52.046;4.724;2023-04-25T10:54:10;6.97;;;1.55;;
27539;SDS011;15906;52.046;4.724;2023-04-25T10:56:55;10.55;;;1.60;;
27539;SDS011;15906;52.046;4.724;2023-04-25T11:08:59;6.68;;;2.47;;
27539;SDS011;15906;52.046;4.724;2023-04-25T11:20:25;9.07;;;2.00;;
27539;SDS011;15906;52.046;4.724;2023-04-25T11:22:51;6.60;;;1.40;;
27539;SDS011;15906;52.046;4.724;2023-04-25T11:25:16;9.27;;;1.30;;
27539;SDS011;15906;52.046;4.724;2023-04-25T11:27:51;6.53;;;1.25;;
27539;SDS011;15906;52.046;4.724;2023-04-25T11:30:18;4.72;;;1.33;;
27539;SDS011;15906;52.046;4.724;2023-04-25T11:32:44;10.23;;;1.63;;
27539;SDS011;15906;52.046;4.724;2023-04-25T11:35:10;9.63;;;1.55;;
27539;SDS011;15906;52.046;4.724;2023-04-25T11:37:36;4.10;;;1.25;;
27539;SDS011;15906;52.046;4.724;2023-04-25T11:40:04;5.78;;;1.10;;
27539;SDS011;15906;52.046;4.724;2023-04-25T11:42:31;8.07;;;1.38;;
27539;SDS011;15906;52.046;4.724;2023-04-25T11:44:58;6.78;;;1.63;;
27539;SDS011;15906;52.046;4.724;2023-04-25T11:47:30;4.68;;;1.05;;
27539;SDS011;15906;52.046;4.724;2023-04-25T11:49:57;5.85;;;1.42;;
27539;SDS011;15906;52.046;4.724;2023-04-25T11:52:24;3.83;;;1.30;;
27539;SDS011;15906;52.046;4.724;2023-04-25T11:55:00;6.38;;;2.38;;
27539;SDS011;15906;52.046;4.724;2023-04-25T11:57:25;6.25;;;1.20;;
27539;SDS011;15906;52.046;4.724;2023-04-25T11:59:51;9.02;;;1.70;;
27539;SDS011;15906;52.046;4.724;2023-04-25T12:02:25;5.35;;;1.38;;
27539;SDS011;15906;52.046;4.724;2023-04-25T12:04:51;5.05;;;1.33;;
27539;SDS011;15906;52.046;4.724;2023-04-25T12:07:17;5.15;;;1.85;;
27539;SDS011;15906;52.046;4.724;2023-04-25T12:09:51;8.45;;;1.33;;
27539;SDS011;15906;52.046;4.724;2023-04-25T12:12:18;4.90;;;1.48;;
27539;SDS011;15906;52.046;4.724;2023-04-25T12:14:45;7.03;;;1.38;;
27539;SDS011;15906;52.046;4.724;2023-04-25T12:17:16;4.97;;;1.52;;
27539;SDS011;15906;52.046;4.724;2023-04-25T12:19:42;7.18;;;1.70;;
27539;SDS011;15906;52.046;4.724;2023-04-25T12:22:22;13.63;;;1.42;;
27539;SDS011;15906;52.046;4.724;2023-04-25T12:24:48;5.20;;;1.23;;
27539;SDS011;15906;52.046;4.724;2023-04-25T12:27:15;8.70;;;1.60;;
27539;SDS011;15906;52.046;4.724;2023-04-25T12:29:49;6.53;;;1.70;;
27539;SDS011;15906;52.046;4.724;2023-04-25T12:32:20;9.93;;;1.40;;
27539;SDS011;15906;52.046;4.724;2023-04-25T12:34:46;3.20;;;1.75;;
27539;SDS011;15906;52.046;4.724;2023-04-25T12:37:12;7.35;;;1.80;;
27539;SDS011;15906;52.046;4.724;2023-04-25T12:39:37;6.75;;;1.20;;
27539;SDS011;15906;52.046;4.724;2023-04-25T12:42:03;7.65;;;1.15;;
27539;SDS011;15906;52.046;4.724;2023-04-25T12:44:29;7.15;;;1.70;;
27539;SDS011;15906;52.046;4.724;2023-04-25T12:46:54;8.15;;;1.33;;
27539;SDS011;15906;52.046;4.724;2023-04-25T12:49:20;7.05;;;1.38;;
27539;SDS011;15906;52.046;4.724;2023-04-25T12:51:46;6.57;;;1.70;;
27539;SDS011;15906;52.046;4.724;2023-04-25T12:54:16;3.58;;;1.27;;
27539;SDS011;15906;52.046;4.724;2023-04-25T12:56:42;6.18;;;1.83;;
27539;SDS011;15906;52.046;4.724;2023-04-25T12:59:07;6.80;;;1.55;;
27539;SDS011;15906;52.046;4.724;2023-04-25T13:01:34;6.30;;;1.77;;
27539;SDS011;15906;52.046;4.724;2023-04-25T13:03:59;4.60;;;1.42;;
27539;SDS011;15906;52.046;4.724;2023-04-25T13:06:25;9.85;;;1.92;;
27539;SDS011;15906;52.046;4.724;2023-04-25T13:08:51;7.30;;;1.40;;
27539;SDS011;15906;52.046;4.724;2023-04-25T13:11:17;6.22;;;1.55;;
27539;SDS011;15906;52.046;4.724;2023-04-25T13:13:43;5.47;;;1.40;;
27539;SDS011;15906;52.046;4.724;2023-04-25T13:16:09;3.83;;;1.20;;
27539;SDS011;15906;52.046;4.724;2023-04-25T13:18:36;7.80;;;1.90;;
27539;SDS011;15906;52.046;4.724;2023-04-25T13:21:02;6.97;;;1.58;;
27539;SDS011;15906;52.046;4.724;2023-04-25T13:23:28;7.30;;;1.60;;
27539;SDS011;15906;52.046;4.724;2023-04-25T13:25:54;11.90;;;1.80;;
27539;SDS011;15906;52.046;4.724;2023-04-25T13:28:22;8.45;;;2.28;;
27539;SDS011;15906;52.046;4.724;2023-04-25T13:30:48;8.63;;;1.88;;
27539;SDS011;15906;52.046;4.724;2023-04-25T13:33:14;7.53;;;1.67;;
27539;SDS011;15906;52.046;4.724;2023-04-25T13:35:40;6.80;;;1.70;;
27539;SDS011;15906;52.046;4.724;2023-04-25T13:38:07;9.35;;;1.67;;
27539;SDS011;15906;52.046;4.724;2023-04-25T13:40:32;8.40;;;1.48;;
27539;SDS011;15906;52.046;4.724;2023-04-25T13:42:58;3.50;;;1.67;;
27539;SDS011;15906;52.046;4.724;2023-04-25T13:45:24;10.88;;;2.85;;
27539;SDS011;15906;52.046;4.724;2023-04-25T13:47:50;11.10;;;3.45;;
27539;SDS011;15906;52.046;4.724;2023-04-25T13:50:15;6.97;;;1.75;;
27539;SDS011;15906;52.046;4.724;2023-04-25T13:52:41;10.05;;;1.77;;
27539;SDS011;15906;52.046;4.724;2023-04-25T13:55:07;8.90;;;2.15;;
27539;SDS011;15906;52.046;4.724;2023-04-25T13:57:33;7.65;;;1.70;;
27539;SDS011;15906;52.046;4.724;2023-04-25T14:00:00;9.82;;;1.85;;
27539;SDS011;15906;52.046;4.724;2023-04-25T14:02:29;9.55;;;1.70;;
27539;SDS011;15906;52.046;4.724;2023-04-25T14:04:55;6.90;;;1.75;;
27539;SDS011;15906;52.046;4.724;2023-04-25T14:07:21;4.13;;;1.40;;
27539;SDS011;15906;52.046;4.724;2023-04-25T14:09:46;11.20;;;1.60;;
27539;SDS011;15906;52.046;4.724;2023-04-25T14:12:12;3.85;;;1.85;;
27539;SDS011;15906;52.046;4.724;2023-04-25T14:14:37;8.07;;;1.73;;
27539;SDS011;15906;52.046;4.724;2023-04-25T14:17:03;9.30;;;1.58;;
27539;SDS011;15906;52.046;4.724;2023-04-25T14:19:29;4.43;;;1.20;;
27539;SDS011;15906;52.046;4.724;2023-04-25T14:21:55;6.32;;;1.35;;
27539;SDS011;15906;52.046;4.724;2023-04-25T14:24:20;7.82;;;1.70;;
27539;SDS011;15906;52.046;4.724;2023-04-25T14:26:46;6.63;;;1.70;;
27539;SDS011;15906;52.046;4.724;2023-04-25T14:29:12;5.80;;;1.50;;
27539;SDS011;15906;52.046;4.724;2023-04-25T14:31:38;4.60;;;1.38;;
27539;SDS011;15906;52.046;4.724;2023-04-25T14:34:05;7.60;;;1.30;;
27539;SDS011;15906;52.046;4.724;2023-04-25T14:36:31;5.40;;;1.70;;
27539;SDS011;15906;52.046;4.724;2023-04-25T14:38:57;6.53;;;1.48;;
27539;SDS011;15906;52.046;4.724;2023-04-25T14:41:23;4.47;;;1.40;;
27539;SDS011;15906;52.046;4.724;2023-04-25T14:43:49;5.85;;;1.48;;
27539;SDS011;15906;52.046;4.724;2023-04-25T14:46:15;8.43;;;1.30;;
27539;SDS011;15906;52.046;4.724;2023-04-25T14:48:41;7.55;;;1.55;;
27539;SDS011;15906;52.046;4.724;2023-04-25T14:51:07;10.15;;;1.80;;
27539;SDS011;15906;52.046;4.724;2023-04-25T14:53:33;9.05;;;1.65;;
27539;SDS011;15906;52.046;4.724;2023-04-25T14:55:58;8.32;;;1.95;;
27539;SDS011;15906;52.046;4.724;2023-04-25T14:58:24;8.27;;;1.60;;
27539;SDS011;15906;52.046;4.724;2023-04-25T15:00:50;8.63;;;1.73;;
27539;SDS011;15906;52.046;4.724;2023-04-25T15:03:16;7.15;;;1.83;;
27539;SDS011;15906;52.046;4.724;2023-04-25T15:05:42;6.43;;;1.30;;
27539;SDS011;15906;52.046;4.724;2023-04-25T15:08:08;4.93;;;1.35;;
27539;SDS011;15906;52.046;4.724;2023-04-25T15:10:34;8.30;;;1.75;;
27539;SDS011;15906;52.046;4.724;2023-04-25T15:12:59;7.68;;;1.45;;
27539;SDS011;15906;52.046;4.724;2023-04-25T15:15:25;7.95;;;2.67;;
27539;SDS011;15906;52.046;4.724;2023-04-25T15:17:51;7.00;;;1.55;;
27539;SDS011;15906;52.046;4.724;2023-04-25T15:20:18;5.68;;;1.50;;
27539;SDS011;15906;52.046;4.724;2023-04-25T15:22:44;9.15;;;1.77;;
27539;SDS011;15906;52.046;4.724;2023-04-25T15:25:10;4.78;;;1.80;;
27539;SDS011;15906;52.046;4.724;2023-04-25T15:27:36;5.28;;;1.70;;
27539;SDS011;15906;52.046;4.724;2023-04-25T15:30:07;11.73;;;2.92;;
27539;SDS011;15906;52.046;4.724;2023-04-25T15:32:33;11.85;;;2.25;;
27539;SDS011;15906;52.046;4.724;2023-04-25T15:35:01;6.95;;;1.92;;
27539;SDS011;15906;52.046;4.724;2023-04-25T15:37:28;7.40;;;1.92;;
27539;SDS011;15906;52.046;4.724;2023-04-25T15:40:05;6.40;;;2.20;;
27539;SDS011;15906;52.046;4.724;2023-04-25T15:42:34;6.47;;;2.05;;
27539;SDS011;15906;52.046;4.724;2023-04-25T15:45:05;7.38;;;2.13;;
27539;SDS011;15906;52.046;4.724;2023-04-25T15:47:32;5.18;;;1.80;;